WetterOnline ( https://www.wetteronline.de )

Wetter aktuell Nidda

Aktuelles Wetter: Gießen (195m)

6-stündlich | Neueste Meldungen
Ortszeit Temperatur Wetter
Di, 27.10. 1:00 6.5° C bewölkt
Mo, 26.10. 19:00 8.1° C bedeckt
Mo, 26.10. 13:00 10.6° C -
Mo, 26.10. 7:00 9.9° C Sprühregen
Mo, 26.10. 1:00 10.4° C leichter Regen
So, 25.10. 19:00 11.9° C leichter Regen
So, 25.10. 13:00 15.2° C leicht bewölkt
So, 25.10. 7:00 9.9° C leicht bewölkt
Ortszeit Temperatur Wetter
Di, 27.10. 1:00 6.5° C bewölkt
Di, 27.10. 0:50 6.5° C bewölkt
Di, 27.10. 0:40 6.5° C bewölkt
Di, 27.10. 0:30 6.7° C bewölkt
Di, 27.10. 0:20 6.7° C bewölkt
Di, 27.10. 0:10 6.2° C wolkig
Di, 27.10. 0:00 6.3° C wolkenlos
Mo, 26.10. 23:30 7.0° C wolkenlos
Mo, 26.10. 23:00 6.5° C leicht bewölkt
Mo, 26.10. 22:30 6.5° C wolkig
Mo, 26.10. 22:00 6.1° C leicht bewölkt
Ortszeit Relative Feuchte Sichtweite
Di, 27.10. 1:00 93% 15 km
Mo, 26.10. 19:00 79% 45 km
Mo, 26.10. 13:00 77% 55 km
Mo, 26.10. 7:00 94% 7 km
Mo, 26.10. 1:00 92% 29 km
So, 25.10. 19:00 89% 29 km
So, 25.10. 13:00 63% 45 km
So, 25.10. 7:00 83% 60 km
Ortszeit Relative Feuchte Sichtweite
Di, 27.10. 1:00 93% 15 km
Di, 27.10. 0:50 93% -
Di, 27.10. 0:40 92% -
Di, 27.10. 0:30 92% 16 km
Di, 27.10. 0:20 92% -
Di, 27.10. 0:10 95% -
Di, 27.10. 0:00 91% 19 km
Mo, 26.10. 23:30 88% 35 km
Mo, 26.10. 23:00 91% 30 km
Mo, 26.10. 22:30 89% 29 km
Mo, 26.10. 22:00 89% 35 km
Ortszeit Niederschlagsmenge Niederschlagsart
Di, 27.10. 1:00 0.0 l/m2 in 6 Std. -
Mo, 26.10. 19:00 0.7 l/m2 in 12 Std. -
Mo, 26.10. 13:00 0.7 l/m2 in 6 Std. Regen
Mo, 26.10. 7:00 3 l/m2 in 12 Std. Regen
Mo, 26.10. 1:00 0.7 l/m2 in 6 Std. Regen
So, 25.10. 19:00 2 l/m2 in 12 Std. Regen
So, 25.10. 13:00 0.0 l/m2 in 6 Std. -
So, 25.10. 7:00 0.0 l/m2 in 12 Std. -
Ortszeit Niederschlagsmenge Niederschlagsart
Di, 27.10. 1:00 0.0 l/m2 in 1 Std. -
Di, 27.10. 0:50 keine Meldung -
Di, 27.10. 0:40 keine Meldung -
Di, 27.10. 0:30 0.0 l/m2 in 1 Std. -
Di, 27.10. 0:20 keine Meldung -
Di, 27.10. 0:10 keine Meldung -
Di, 27.10. 0:00 0.0 l/m2 in 1 Std. -
Mo, 26.10. 23:30 0.0 l/m2 in 1 Std. -
Mo, 26.10. 23:00 0.0 l/m2 in 1 Std. -
Mo, 26.10. 22:30 0.0 l/m2 in 1 Std. -
Mo, 26.10. 22:00 0.0 l/m2 in 1 Std. -
Ortszeit Stärke Spitze Richtung
km/h Bft. km/h Grad Sektor
Di, 27.10. 1:00 7 2 13 130° SO
Mo, 26.10. 19:00 7 2 40 120° SO
Mo, 26.10. 13:00 18 3 29 210° SW
Mo, 26.10. 7:00 7 2 18 170° S
Mo, 26.10. 1:00 7 2 18 170° S
So, 25.10. 19:00 13 3 31 200° S
So, 25.10. 13:00 25 4 40 160° S
So, 25.10. 7:00 13 3 37 150° SO
Ortszeit Stärke Spitze Richtung
km/h Bft. km/h Grad Sektor
Di, 27.10. 1:00 7 2 13 130° SO
Di, 27.10. 0:50 7 2 - 130° SO
Di, 27.10. 0:40 7 2 - 130° SO
Di, 27.10. 0:30 9 2 13 120° SO
Di, 27.10. 0:20 9 2 - 120° SO
Di, 27.10. 0:10 7 2 - 120° SO
Di, 27.10. 0:00 7 2 14 130° SO
Mo, 26.10. 23:30 7 2 11 150° SO
Mo, 26.10. 23:00 7 2 13 170° S
Mo, 26.10. 22:30 9 2 13 180° S
Mo, 26.10. 22:00 7 2 14 190° S
Ortszeit Untergrenze Bedeckung Gattung
total tief tief mittel hoch
Di, 27.10. 1:00 1500 m 7/8 7/8 - - -
Mo, 26.10. 19:00 5700 m 8/8 8/8 - - -
Mo, 26.10. 13:00 - - - - - -
Mo, 26.10. 7:00 - - - - - -
Mo, 26.10. 1:00 1380 m 8/8 8/8 - - -
So, 25.10. 19:00 1800 m 7/8 6/8 - - -
So, 25.10. 13:00 1050 m 3/8 3/8 - - -
So, 25.10. 7:00 8100 m 3/8 0/8 - - -
Ortszeit Bedeckungsgrad in Achtel und Wolkenuntergrenze
Di, 27.10. 1:00 7(1500m)
Di, 27.10. 0:50 7(1500m)
Di, 27.10. 0:40 2(750m) 7(1500m)
Di, 27.10. 0:30 4(750m) 7(1500m)
Di, 27.10. 0:20 4(750m) 7(1500m)
Di, 27.10. 0:10 2(720m) 5(1500m)
Di, 27.10. 0:00 1(1500m)
Mo, 26.10. 23:30 keine Wolken
Mo, 26.10. 23:00 3(7800m)
Mo, 26.10. 22:30 7(7500m)
Mo, 26.10. 22:00 3(7500m)
Ortszeit Luftdruck NN (hPa) Tendenz (hPa in 3 Std.)
Di, 27.10. 1:00 1007 + 0,2
Mo, 26.10. 19:00 1006 + 0,9
Mo, 26.10. 13:00 1004 + 0,2
Mo, 26.10. 7:00 1002 - 1,3
Mo, 26.10. 1:00 1004 - 1,1
So, 25.10. 19:00 1005 + 0,2
So, 25.10. 13:00 1006 - 2,0
So, 25.10. 7:00 1009 - 0,7
Ortszeit Luftdruck NN (hPa) Tendenz (hPa in 3 Std.)
Di, 27.10. 1:00 1007 + 0,2
Di, 27.10. 0:50 1007 keine Meldung
Di, 27.10. 0:40 1007 keine Meldung
Di, 27.10. 0:30 1007 + 0,4
Di, 27.10. 0:20 1007 keine Meldung
Di, 27.10. 0:10 1008 keine Meldung
Di, 27.10. 0:00 1007 + 0,4
Mo, 26.10. 23:30 1007 + 0,5
Mo, 26.10. 23:00 1007 + 0,6
Mo, 26.10. 22:30 1007 + 0,8
Mo, 26.10. 22:00 1007 + 1,0
Ortszeit Schneehöhe (cm)
Di, 27.10. 1:00 0
Mo, 26.10. 19:00 0
Mo, 26.10. 13:00 0
Mo, 26.10. 7:00 0
Mo, 26.10. 1:00 0
So, 25.10. 19:00 0
So, 25.10. 13:00 0
So, 25.10. 7:00 0
Ortszeit Schneehöhe (cm)
Di, 27.10. 1:00 0
Di, 27.10. 0:50 0
Di, 27.10. 0:40 0
Di, 27.10. 0:30 0
Di, 27.10. 0:20 0
Di, 27.10. 0:10 0
Di, 27.10. 0:00 0
Mo, 26.10. 23:30 0
Mo, 26.10. 23:00 0
Mo, 26.10. 22:30 0
Mo, 26.10. 22:00 0
Link zu dieser Seite / Seite empfehlen

Das Wetter in ...